x

Southeast Bering Sea -205nm Wnw Of Dutch Harbor, Ak (46073) Wave Buoy

9:50 - Mon 1st Sep 2014 All times are UTC.

  • Sig Wave height 4.6ft
  • Swell Direction
  • Peak Period 7s
  • Average Period 5s
  • Wind
    18mph, 22mph gusts
  • Sea Temp 55°f
  • Air Temp 54°f
  • Sea Pressure 1023.5mb

More Historic Weather Station data

Upgrade to MSW Pro to gain access to the past 30 days of data for over 8000 Wavebouys and Weather Stations around the globe.

Join Pro

Comparision Forecast

View Surf forecast
   
lun. 09/01 9:50 4.5ft 7s 5s 18 22 mph 1023.5mb 55f 54f
8:50 4.5ft 6s 5s 18 20 mph 1023.6mb 55f 54f
7:50 3.5ft 5s 4s 16 20 mph 1023.3mb 55f 55f
6:50 4ft 5s 4s 18 22 mph 1023.4mb 55f 54f
5:50 3.5ft 5s 4s 20 22 mph 1023.2mb 55f 54f
4:50 3.5ft 5s 4s 18 20 mph 1023.1mb 55f 54f
3:50 3ft 4s 4s 18 20 mph 1023mb 55f 54f
2:50 2.5ft 6s 4s 18 20 mph 1023mb 55f 54f
1:50 3ft 7s 4s 16 18 mph 1023.2mb 55f 54f
12:50 2.5ft 7s 5s 13 16 mph 1023.3mb 55f 55f
11:50 2.5ft 7s 5s 11 13 mph 1023.5mb 55f 55f
10:50 2.5ft 7s 5s 11 13 mph 1023.5mb 55f 55f
9:50 2.5ft 7s 5s 9 11 mph 1023.6mb 55f 54f
8:50 2.5ft 6s 5s 11 13 mph 1023.3mb 55f 55f
7:50 3ft 6s 4s 13 16 mph 1023.1mb 55f 54f
6:50 2.5ft 7s 5s 13 16 mph 1022.8mb 55f 54f
5:50 3ft 6s 5s 11 16 mph 1022.6mb 55f 54f
4:50 3ft 6s 5s 11 16 mph 1022.6mb 55f 55f
3:50 3ft 6s 5s 13 16 mph 1022.3mb 55f 55f
2:50 3.5ft 7s 5s 11
mph
1022.2mb 55f 55f
1:50 4ft 6s 6s 13 16 mph 1021.9mb 55f 55f
12:50 3.5ft 7s 6s 11
mph
1021.8mb 55f 54f
dim. 08/31 11:50 3.5ft 7s 6s 9 11 mph 1021.5mb 55f 54f
10:50 3.5ft 8s 6s 9
mph
1021mb 55f 54f
9:50 3.5ft 6s 6s 4 9 mph 1021mb 55f 53f
8:50 3.5ft 7s 5s 7
mph
1020.7mb 55f 53f
7:50 3.5ft 7s 5s 16 18 mph 1019.9mb 55f 53f
6:50 3.5ft 6s 5s 9 11 mph 1019.6mb 55f 54f
5:50 3.5ft 7s 5s 9 11 mph 1019.1mb 55f 54f
4:50 3.5ft 7s 5s 11 13 mph 1018.2mb 55f 54f
3:50 3.5ft 7s 5s 13
mph
1017.4mb 55f 54f
2:50 4ft 7s 5s 9 11 mph 1016.9mb 55f 53f
1:50 4ft 7s 5s 11 13 mph 1016.5mb 55f 53f
12:50 4ft 7s 5s 9 11 mph 1015.9mb 55f 53f
11:50 4ft 7s 5s 9 11 mph 1015.6mb 55f 54f
10:50 3.5ft 7s 5s 11 13 mph 1014.8mb 55f 54f
9:50 3.5ft 7s 5s 13 16 mph 1014.2mb 55f 54f
8:50 3.5ft 7s 5s 13 16 mph 1013.3mb 55f 54f
7:50 3.5ft 7s 5s 13 16 mph 1012.5mb 55f 54f
6:50 3.5ft 6s 5s 16 18 mph 1011.7mb 55f 54f
5:50 3.5ft 6s 5s 13 16 mph 1010.6mb 55f 54f
4:50 3.5ft 5s 5s 13 16 mph 1010mb 55f 53f
3:50 3ft 6s 5s 18 20 mph 1009mb 55f 54f
2:50 3ft 7s 6s 18 22 mph 1008.3mb 55f 54f
1:50 3ft 10s 6s 9 11 mph 1008mb 55f 55f
12:50 3ft 10s 6s 9 11 mph 1007.4mb 55f 55f
sam. 08/30 11:50 3ft 10s 6s 7 9 mph 1006.9mb 55f 55f
10:50 3.5ft 11s 6s 9
mph
1006.5mb 55f 54f
8:50 3.5ft 11s 6s 4
mph
1005.6mb 55f 55f
7:50 3.5ft 6s 6s 7
mph
1004.8mb 55f 54f
6:50 3.5ft 5s 6s 7 9 mph 1004mb 55f 54f
5:50 3.5ft 10s 6s 7 9 mph 1003.7mb 55f 54f
4:50 3.5ft 6s 6s 7 9 mph 1003mb 55f 54f
3:50 3.5ft 6s 6s 9 11 mph 1002.7mb 55f 55f
2:50 3ft 6s 5s 9 11 mph 1002.3mb 55f 54f
1:50 3ft 6s 5s 9 11 mph 1001.8mb 55f 55f
12:50 3.5ft 7s 5s 13 16 mph 1001.4mb 55f 54f
11:50 3.5ft 6s 5s 9 11 mph 1001.1mb 55f 54f
10:50 3.5ft 6s 5s 11 13 mph 1000.8mb 55f 54f
9:50 4ft 6s 5s 13 16 mph 1000.5mb 55f 54f
8:50 3.5ft 6s 5s 11 13 mph 1000.5mb 55f 54f
7:50 3.5ft 6s 5s 9 11 mph 1000.4mb 55f 54f
6:50 3.5ft 6s 5s 9 11 mph 1000.2mb 55f 54f
5:50 3.5ft 6s 5s 9 11 mph 1000.3mb 55f 54f
4:50 3.5ft 6s 5s 9 11 mph 1000.7mb 55f 54f
3:50 3.5ft 6s 5s 9 11 mph 1001.3mb 55f 54f
2:50 3.5ft 7s 5s 11 13 mph 1002mb 55f 54f
1:50 3.5ft 6s 5s 11 13 mph 1002.5mb 55f 54f
12:50 3.5ft 7s 5s 13 16 mph 1003.2mb 55f 54f
ven. 08/29 11:50 3.5ft 6s 5s 13 16 mph 1003.9mb 55f 54f
10:50 3.5ft 7s 5s 13 16 mph 1004.4mb 55f 54f
9:50 4ft 6s 5s 11 16 mph 1005mb 55f 54f
8:50 4.5ft 6s 5s 13
mph
1005.3mb 55f 54f
7:50 4.5ft 6s 5s 13 16 mph 1005.4mb 55f 54f
6:50 4.5ft 6s 5s 16 18 mph 1006mb 55f 54f
5:50 4.5ft 6s 5s 16 18 mph 1006mb 55f 54f
4:50 4.5ft 6s 5s 16 18 mph 1006.2mb 55f 54f
3:50 3.5ft 5s 5s 18 20 mph 1006.6mb 55f 54f
2:50 3.5ft 5s 5s 13 18 mph 1007.1mb 55f 54f
1:50 3ft 6s 4s 16 18 mph 1007.4mb 55f 54f
12:50 2.5ft 5s 4s 13
mph
1008.1mb 55f 54f
11:50 3ft 5s 5s 13 16 mph 1008.3mb 55f 54f
10:50 3.5ft 6s 5s 16 18 mph 1008.4mb 55f 54f
9:50 3.5ft 6s 5s 16 18 mph 1008.4mb 55f 54f
8:50 4ft 6s 5s 11 16 mph 1008.4mb 55f 54f
7:50 4.5ft 6s 5s 13 16 mph 1008.7mb 55f 53f
6:50 4ft 6s 5s 16 18 mph 1008.7mb 55f 53f
5:50 4ft 5s 4s 18 20 mph 1008.1mb 55f 53f
4:50 3.5ft 6s 5s 18 20 mph 1009.4mb 55f 53f
3:50 3.5ft 5s 4s 16 18 mph 1009.2mb 55f 53f
2:50 3.5ft 5s 5s 16 18 mph 1010.3mb 55f 53f
1:50 3.5ft 5s 4s 18 20 mph 1009.8mb 55f 53f
12:50 3.5ft 5s 4s 18 20 mph 1011mb 55f 53f
jeu. 08/28 11:50 3.5ft 5s 4s 16 18 mph 1011.1mb 55f 53f